createdAt,value
2017-10-17T00:01:17.288Z,11.70
2017-10-17T00:03:43.922Z,11.60
2017-10-17T00:06:10.539Z,11.60
2017-10-17T00:08:37.712Z,11.60
2017-10-17T00:11:03.928Z,11.60
2017-10-17T00:13:30.172Z,11.50
2017-10-17T00:15:56.655Z,11.50
2017-10-17T00:18:22.859Z,11.40
2017-10-17T00:20:49.089Z,11.40
2017-10-17T00:23:15.972Z,11.30
2017-10-17T00:25:42.186Z,11.30
2017-10-17T00:28:08.412Z,11.20
2017-10-17T00:30:50.384Z,11.20
2017-10-17T00:33:16.628Z,11.20
2017-10-17T00:35:43.651Z,11.20
2017-10-17T00:38:09.886Z,11.20
2017-10-17T00:40:36.094Z,11.20
2017-10-17T00:43:02.319Z,11.20
2017-10-17T00:45:28.548Z,11.20
2017-10-17T00:47:54.799Z,11.10
2017-10-17T00:50:21.044Z,11.00
2017-10-17T00:52:47.281Z,11.00
2017-10-17T00:55:13.522Z,11.00
2017-10-17T00:57:39.734Z,11.00
2017-10-17T01:00:05.958Z,11.00
2017-10-17T01:02:32.172Z,10.90
2017-10-17T01:04:58.474Z,10.90
2017-10-17T01:07:25.084Z,10.90
2017-10-17T01:09:51.299Z,10.90
2017-10-17T01:12:17.555Z,10.90
2017-10-17T01:14:44.164Z,10.80
2017-10-17T01:17:10.392Z,10.80
2017-10-17T01:19:36.596Z,10.80
2017-10-17T01:22:02.854Z,10.80
2017-10-17T01:24:29.071Z,10.90
2017-10-17T01:26:55.312Z,10.80
2017-10-17T01:29:25.419Z,10.80
2017-10-17T01:31:51.642Z,10.80
2017-10-17T01:34:19.799Z,10.80
2017-10-17T01:36:46.688Z,10.80
2017-10-17T01:39:14.664Z,10.80
2017-10-17T01:41:41.347Z,10.80
2017-10-17T01:44:16.727Z,10.80
2017-10-17T01:46:47.809Z,10.80
2017-10-17T01:49:30.770Z,10.80
2017-10-17T01:52:11.881Z,10.70
2017-10-17T01:54:39.315Z,10.60
2017-10-17T01:57:05.631Z,10.60
2017-10-17T01:59:36.796Z,10.60
2017-10-17T02:02:03.015Z,10.60
2017-10-17T02:04:29.236Z,10.70
2017-10-17T02:06:55.444Z,10.80
2017-10-17T02:09:21.683Z,10.80
2017-10-17T02:11:47.891Z,10.80
2017-10-17T02:14:14.116Z,10.80
2017-10-17T02:16:40.327Z,10.90
2017-10-17T02:19:23.179Z,10.80
2017-10-17T02:21:52.260Z,10.80
2017-10-17T02:24:18.498Z,10.80
2017-10-17T02:26:44.752Z,10.80
2017-10-17T02:29:11.910Z,10.80
2017-10-17T02:31:38.161Z,10.90
2017-10-17T02:34:18.330Z,10.80
2017-10-17T02:36:44.556Z,10.80
2017-10-17T02:39:10.757Z,10.80
2017-10-17T02:41:37.369Z,10.70
2017-10-17T02:44:03.612Z,10.70
2017-10-17T02:46:30.695Z,10.80
2017-10-17T02:49:04.122Z,10.80
2017-10-17T02:51:30.369Z,10.80
2017-10-17T02:53:56.600Z,10.80
2017-10-17T02:56:22.840Z,10.80
2017-10-17T02:58:49.071Z,10.80
2017-10-17T03:01:15.324Z,10.80
2017-10-17T03:03:42.497Z,10.80
2017-10-17T03:06:08.818Z,10.90
2017-10-17T03:08:35.051Z,10.80
2017-10-17T03:11:01.292Z,10.80
2017-10-17T03:13:28.306Z,10.80
2017-10-17T03:16:07.333Z,10.80
2017-10-17T03:18:33.935Z,10.80
2017-10-17T03:21:07.189Z,10.80
2017-10-17T03:23:33.438Z,10.90
2017-10-17T03:25:59.688Z,11.00
2017-10-17T03:28:28.898Z,11.00
2017-10-17T03:30:55.142Z,11.00
2017-10-17T03:33:27.667Z,11.10
2017-10-17T03:35:53.904Z,11.10
2017-10-17T03:38:22.964Z,11.10
2017-10-17T03:40:51.187Z,11.20
2017-10-17T03:43:37.116Z,11.20
2017-10-17T03:46:03.347Z,11.00
2017-10-17T03:48:29.627Z,11.00
2017-10-17T03:51:03.731Z,11.10
2017-10-17T03:53:36.804Z,11.10
2017-10-17T03:56:03.072Z,10.90
2017-10-17T03:58:40.011Z,10.90
2017-10-17T04:01:06.242Z,11.00
2017-10-17T04:03:32.451Z,10.70
2017-10-17T04:06:02.497Z,10.70
2017-10-17T04:08:30.539Z,10.80
2017-10-17T04:11:16.688Z,10.80
2017-10-17T04:16:48.496Z,10.70
2017-10-17T04:19:23.829Z,10.60
2017-10-17T04:22:08.104Z,10.60
2017-10-17T04:24:41.224Z,10.60
2017-10-17T04:27:30.183Z,10.60
2017-10-17T04:30:14.254Z,10.80
2017-10-17T04:32:48.186Z,10.60
2017-10-17T04:35:15.600Z,10.40
2017-10-17T04:37:42.781Z,10.40
2017-10-17T04:40:15.851Z,10.40
2017-10-17T04:48:56.166Z,10.70
2017-10-17T04:51:27.194Z,10.60
2017-10-17T04:56:55.111Z,10.30
2017-10-17T04:59:25.553Z,10.40
2017-10-17T05:02:06.661Z,10.40
2017-10-17T05:04:50.419Z,10.30
2017-10-17T05:07:19.428Z,10.30
2017-10-17T05:09:49.630Z,10.40
2017-10-17T05:12:17.786Z,10.50
2017-10-17T05:14:43.987Z,10.40
2017-10-17T05:17:17.866Z,10.50
2017-10-17T05:23:06.542Z,10.60
2017-10-17T05:25:36.047Z,10.60
2017-10-17T05:31:14.518Z,10.60
2017-10-17T05:33:47.755Z,10.60
2017-10-17T05:36:17.715Z,10.60
2017-10-17T05:38:43.978Z,10.60
2017-10-17T05:41:10.214Z,10.70
2017-10-17T05:43:41.171Z,10.80
2017-10-17T05:46:07.379Z,10.80
2017-10-17T05:48:33.854Z,10.90
2017-10-17T05:51:05.206Z,10.90
2017-10-17T05:53:31.403Z,10.90
2017-10-17T05:55:57.584Z,11.00
2017-10-17T05:58:23.820Z,11.00
2017-10-17T06:00:50.028Z,11.00
2017-10-17T06:03:16.229Z,11.20
2017-10-17T06:05:42.414Z,11.20
2017-10-17T06:08:08.608Z,11.20
2017-10-17T06:10:34.841Z,11.00
2017-10-17T06:13:01.026Z,10.80
2017-10-17T06:15:27.219Z,10.90
2017-10-17T06:17:53.406Z,11.10
2017-10-17T06:20:19.599Z,11.20
2017-10-17T06:22:46.810Z,11.20
2017-10-17T06:25:13.010Z,11.20
2017-10-17T06:27:39.233Z,11.40
2017-10-17T06:30:05.444Z,11.30
2017-10-17T06:32:31.655Z,11.20
2017-10-17T06:34:57.852Z,11.10
2017-10-17T06:37:24.043Z,11.10
2017-10-17T06:39:50.618Z,11.10
2017-10-17T06:42:16.829Z,11.10
2017-10-17T06:44:43.044Z,11.40
2017-10-17T06:47:09.332Z,11.50
2017-10-17T06:49:35.574Z,11.60
2017-10-17T06:52:01.808Z,11.80
2017-10-17T06:54:28.052Z,11.90
2017-10-17T06:56:54.633Z,12.20
2017-10-17T06:59:20.864Z,12.20
2017-10-17T07:01:47.069Z,12.00
2017-10-17T07:04:13.292Z,12.10
2017-10-17T07:06:39.541Z,12.30
2017-10-17T07:09:05.779Z,12.50
2017-10-17T07:11:32.016Z,12.40
2017-10-17T07:13:58.215Z,12.50
2017-10-17T07:16:24.399Z,12.50
2017-10-17T07:18:50.598Z,12.50
2017-10-17T07:21:16.841Z,12.30
2017-10-17T07:23:43.105Z,12.10
2017-10-17T07:26:09.367Z,12.10
2017-10-17T07:28:35.593Z,12.00
2017-10-17T07:31:01.781Z,11.90
2017-10-17T07:33:28.383Z,11.70
2017-10-17T07:35:54.616Z,11.70
2017-10-17T07:38:20.832Z,11.80
2017-10-17T07:40:47.069Z,11.90
2017-10-17T07:43:13.324Z,11.90
2017-10-17T07:45:39.576Z,11.80
2017-10-17T07:48:05.829Z,11.90
2017-10-17T07:50:32.116Z,11.80
2017-10-17T07:52:58.774Z,12.00
2017-10-17T07:55:25.016Z,12.00
2017-10-17T07:57:51.237Z,12.10
2017-10-17T08:00:17.799Z,12.30
2017-10-17T08:02:44.003Z,12.30
2017-10-17T08:05:10.262Z,12.20
2017-10-17T08:07:36.508Z,12.40
2017-10-17T08:10:02.764Z,12.50
2017-10-17T08:12:29.381Z,12.80
2017-10-17T08:14:55.582Z,12.90
2017-10-17T08:17:21.791Z,13.00
2017-10-17T08:19:47.954Z,13.20
2017-10-17T08:22:14.153Z,13.30
2017-10-17T08:24:40.357Z,13.20
2017-10-17T08:27:06.624Z,13.30
2017-10-17T08:29:33.764Z,13.50
2017-10-17T08:31:59.975Z,13.50
2017-10-17T08:34:26.199Z,13.60
2017-10-17T08:36:52.406Z,13.80
2017-10-17T08:39:18.657Z,14.00
2017-10-17T08:41:45.477Z,14.10
2017-10-17T08:44:11.676Z,14.10
2017-10-17T08:46:37.917Z,14.10
2017-10-17T08:49:04.560Z,14.30
2017-10-17T08:51:31.183Z,14.30
2017-10-17T08:53:57.784Z,14.50
2017-10-17T08:56:24.006Z,14.50
2017-10-17T08:58:50.208Z,14.50
2017-10-17T09:01:16.492Z,14.50
2017-10-17T09:03:42.720Z,14.70
2017-10-17T09:06:08.949Z,14.90
2017-10-17T09:08:35.160Z,14.90
2017-10-17T09:11:01.384Z,14.90
2017-10-17T09:13:27.600Z,14.90
2017-10-17T09:15:53.816Z,15.10
2017-10-17T09:18:20.053Z,15.30
2017-10-17T09:20:46.246Z,15.40
2017-10-17T09:23:12.444Z,15.60
2017-10-17T09:25:38.651Z,15.50
2017-10-17T09:28:05.534Z,15.60
2017-10-17T09:30:32.174Z,15.90
2017-10-17T09:32:59.707Z,16.00
2017-10-17T09:35:25.968Z,16.00
2017-10-17T09:37:52.256Z,16.30
2017-10-17T09:40:19.283Z,16.90
2017-10-17T09:42:45.522Z,16.90
2017-10-17T09:45:11.712Z,17.10
2017-10-17T09:47:37.948Z,17.30
2017-10-17T09:50:04.154Z,17.40
2017-10-17T09:52:30.378Z,17.60
2017-10-17T09:54:56.581Z,17.90
2017-10-17T09:57:22.790Z,18.40
2017-10-17T09:59:49.006Z,19.30
2017-10-17T10:02:15.273Z,20.60
2017-10-17T10:04:41.487Z,22.20
2017-10-17T10:07:07.691Z,24.00
2017-10-17T10:09:33.906Z,26.20
2017-10-17T10:12:00.112Z,27.90
2017-10-17T10:14:26.365Z,30.30
2017-10-17T10:16:52.580Z,32.50
2017-10-17T10:19:18.779Z,34.50
2017-10-17T10:21:45.322Z,38.90
2017-10-17T10:24:12.115Z,38.90
2017-10-17T10:26:38.364Z,40.60
2017-10-17T10:29:04.569Z,42.30
2017-10-17T10:31:30.749Z,43.80
2017-10-17T10:33:57.299Z,45.20
2017-10-17T10:36:23.524Z,45.30
2017-10-17T10:38:49.742Z,46.30
2017-10-17T10:41:16.588Z,47.40
2017-10-17T10:43:42.915Z,48.30
2017-10-17T10:46:09.128Z,48.10
2017-10-17T10:48:35.744Z,48.50
2017-10-17T10:51:01.961Z,48.50
2017-10-17T10:53:28.249Z,48.30
2017-10-17T10:55:54.529Z,48.60
2017-10-17T10:58:20.754Z,49.70
2017-10-17T11:00:46.972Z,49.80
2017-10-17T11:03:13.181Z,50.80
2017-10-17T11:05:39.395Z,51.90
2017-10-17T11:08:05.622Z,51.50
2017-10-17T11:10:31.838Z,52.10
2017-10-17T11:12:58.056Z,52.50
2017-10-17T11:15:24.635Z,53.60
2017-10-17T11:17:50.878Z,53.60
2017-10-17T11:20:17.069Z,54.00
2017-10-17T11:22:43.289Z,54.10
2017-10-17T11:25:09.586Z,54.60
2017-10-17T11:27:36.191Z,55.70
2017-10-17T11:30:02.488Z,55.70
2017-10-17T11:32:28.711Z,55.40
2017-10-17T11:34:55.449Z,55.30
2017-10-17T11:37:21.652Z,55.80
2017-10-17T11:39:48.723Z,56.20
2017-10-17T11:42:27.262Z,56.70
2017-10-17T11:44:53.528Z,57.10
2017-10-17T11:47:19.777Z,57.40
2017-10-17T11:49:46.438Z,57.80
2017-10-17T11:52:12.688Z,57.80
2017-10-17T11:54:38.928Z,57.90
2017-10-17T11:57:05.159Z,58.10
2017-10-17T11:59:31.387Z,58.20
2017-10-17T12:01:57.623Z,58.30
2017-10-17T12:04:23.838Z,58.50
2017-10-17T12:06:50.088Z,58.60
2017-10-17T12:09:16.322Z,58.60
2017-10-17T12:11:42.581Z,58.50
2017-10-17T12:14:08.833Z,58.30
2017-10-17T12:16:35.056Z,57.80
2017-10-17T12:19:02.084Z,55.80
2017-10-17T12:21:28.291Z,53.10
2017-10-17T12:23:54.521Z,50.90
2017-10-17T12:26:20.776Z,49.40
2017-10-17T12:28:47.042Z,48.60
2017-10-17T12:31:13.399Z,48.10
2017-10-17T12:33:39.641Z,47.40
2017-10-17T12:36:06.253Z,44.70
2017-10-17T12:38:32.491Z,44.70
2017-10-17T12:40:58.742Z,43.30
2017-10-17T12:43:24.959Z,42.80
2017-10-17T12:45:51.768Z,42.90
2017-10-17T12:48:17.991Z,42.80
2017-10-17T12:50:44.201Z,42.70
2017-10-17T12:53:10.442Z,43.50
2017-10-17T12:55:36.682Z,46.00
2017-10-17T12:58:02.918Z,48.70
2017-10-17T13:00:29.180Z,50.90
2017-10-17T13:02:55.413Z,51.80
2017-10-17T13:05:22.551Z,51.50
2017-10-17T13:07:49.181Z,51.80
2017-10-17T13:10:15.422Z,51.80
2017-10-17T13:12:41.976Z,54.20
2017-10-17T13:15:08.196Z,54.20
2017-10-17T13:17:34.432Z,55.10
2017-10-17T13:20:00.683Z,55.90
2017-10-17T13:22:26.886Z,56.80
2017-10-17T13:24:53.104Z,57.40
2017-10-17T13:27:19.336Z,57.80
2017-10-17T13:29:45.550Z,58.00
2017-10-17T13:32:11.818Z,58.20
2017-10-17T13:34:38.279Z,58.30
2017-10-17T13:37:04.543Z,58.00
2017-10-17T13:39:31.140Z,57.30
2017-10-17T13:41:57.387Z,57.20
2017-10-17T13:44:23.583Z,57.00
2017-10-17T13:46:49.803Z,56.80
2017-10-17T13:49:16.039Z,56.50
2017-10-17T13:51:42.305Z,56.50
2017-10-17T13:54:08.511Z,56.70
2017-10-17T13:56:34.698Z,56.90
2017-10-17T13:59:01.823Z,57.00
2017-10-17T14:01:28.393Z,57.10
2017-10-17T14:03:54.624Z,57.10
2017-10-17T14:06:20.869Z,57.00
2017-10-17T14:08:47.099Z,56.90
2017-10-17T14:11:13.982Z,56.80
2017-10-17T14:13:40.221Z,56.70
2017-10-17T14:16:06.851Z,56.20
2017-10-17T14:18:33.441Z,55.80
2017-10-17T14:20:59.751Z,55.80
2017-10-17T14:23:25.969Z,55.10
2017-10-17T14:25:52.213Z,53.70
2017-10-17T14:28:18.438Z,52.20
2017-10-17T14:30:44.660Z,51.30
2017-10-17T14:33:10.881Z,51.00
2017-10-17T14:35:37.070Z,50.50
2017-10-17T14:38:03.288Z,48.80
2017-10-17T14:40:29.971Z,46.20
2017-10-17T14:42:56.436Z,43.50
2017-10-17T14:45:22.642Z,40.70
2017-10-17T14:47:48.837Z,38.20
2017-10-17T14:50:15.440Z,34.30
2017-10-17T14:52:41.642Z,34.30
2017-10-17T14:55:07.850Z,32.80
2017-10-17T14:57:34.132Z,31.70
2017-10-17T15:00:00.376Z,30.90
2017-10-17T15:02:26.587Z,30.20
2017-10-17T15:04:52.815Z,29.50
2017-10-17T15:07:19.004Z,28.80
2017-10-17T15:09:45.229Z,28.30
2017-10-17T15:12:11.968Z,27.80
2017-10-17T15:14:38.180Z,27.30
2017-10-17T15:17:04.812Z,26.60
2017-10-17T15:19:31.028Z,26.60
2017-10-17T15:21:57.627Z,26.00
2017-10-17T15:24:23.833Z,25.90
2017-10-17T15:26:50.087Z,25.70
2017-10-17T15:29:16.299Z,25.50
2017-10-17T15:31:42.534Z,25.10
2017-10-17T15:34:08.750Z,24.90
2017-10-17T15:36:34.980Z,24.60
2017-10-17T15:39:01.216Z,24.40
2017-10-17T15:41:27.462Z,24.10
2017-10-17T15:43:53.667Z,23.90
2017-10-17T15:46:19.882Z,23.70
2017-10-17T15:48:46.372Z,23.40
2017-10-17T15:51:12.592Z,23.20
2017-10-17T15:53:38.842Z,23.00
2017-10-17T15:56:05.570Z,22.50
2017-10-17T15:58:31.742Z,22.50
2017-10-17T16:00:58.584Z,22.30
2017-10-17T16:03:24.789Z,22.10
2017-10-17T16:05:51.423Z,21.80
2017-10-17T16:08:18.003Z,21.60
2017-10-17T16:10:44.229Z,21.60
2017-10-17T16:13:10.463Z,21.40
2017-10-17T16:15:36.729Z,21.20
2017-10-17T16:18:03.334Z,20.90
2017-10-17T16:20:29.535Z,20.80
2017-10-17T16:22:55.770Z,20.70
2017-10-17T16:25:21.993Z,20.60
2017-10-17T16:27:48.205Z,20.50
2017-10-17T16:30:14.398Z,20.30
2017-10-17T16:32:40.620Z,20.10
2017-10-17T16:35:06.919Z,19.90
2017-10-17T16:37:33.220Z,19.80
2017-10-17T16:39:59.477Z,19.60
2017-10-17T16:42:25.688Z,19.50
2017-10-17T16:44:51.917Z,19.30
2017-10-17T16:47:18.159Z,19.30
2017-10-17T16:49:44.417Z,19.10
2017-10-17T16:52:10.682Z,19.00
2017-10-17T16:54:36.937Z,18.80
2017-10-17T16:57:03.247Z,18.80
2017-10-17T16:59:29.494Z,18.60
2017-10-17T17:01:55.840Z,18.50
2017-10-17T17:04:22.261Z,18.30
2017-10-17T17:06:48.479Z,18.30
2017-10-17T17:09:14.696Z,18.20
2017-10-17T17:11:40.897Z,18.00
2017-10-17T17:14:07.154Z,17.90
2017-10-17T17:16:33.400Z,17.90
2017-10-17T17:18:59.660Z,17.70
2017-10-17T17:21:27.091Z,17.60
2017-10-17T17:23:53.392Z,17.60
2017-10-17T17:26:19.782Z,17.40
2017-10-17T17:28:46.035Z,17.40
2017-10-17T17:31:12.635Z,17.20
2017-10-17T17:33:38.893Z,17.20
2017-10-17T17:36:05.171Z,17.20
2017-10-17T17:38:31.412Z,17.10
2017-10-17T17:41:03.366Z,17.10
2017-10-17T17:43:29.598Z,16.90
2017-10-17T17:45:55.883Z,16.90
2017-10-17T17:48:22.577Z,16.80
2017-10-17T17:50:49.020Z,16.80
2017-10-17T17:53:15.424Z,16.70
2017-10-17T17:55:41.795Z,16.70
2017-10-17T17:58:09.263Z,16.70
2017-10-17T18:00:35.553Z,16.60
2017-10-17T18:03:02.017Z,16.60
2017-10-17T18:05:28.513Z,16.50
2017-10-17T18:07:55.204Z,16.40
2017-10-17T18:10:21.410Z,16.40
2017-10-17T18:12:47.654Z,16.30
2017-10-17T18:15:13.900Z,16.10
2017-10-17T18:17:40.481Z,16.10
2017-10-17T18:20:06.786Z,16.10
2017-10-17T18:22:33.457Z,15.90
2017-10-17T18:25:04.954Z,15.90
2017-10-17T18:27:31.948Z,15.80
2017-10-17T18:29:58.667Z,15.80
2017-10-17T18:32:25.010Z,15.80
2017-10-17T18:34:51.298Z,15.70
2017-10-17T18:37:17.638Z,15.60
2017-10-17T18:39:43.962Z,15.60
2017-10-17T18:42:10.247Z,15.60
2017-10-17T18:44:36.558Z,15.60
2017-10-17T18:47:03.494Z,15.50
2017-10-17T18:49:29.759Z,15.50
2017-10-17T18:51:56.547Z,15.40
2017-10-17T18:54:23.265Z,15.40
2017-10-17T18:56:49.926Z,15.30
2017-10-17T18:59:16.367Z,15.30
2017-10-17T19:01:43.265Z,15.20
2017-10-17T19:04:09.553Z,15.20
2017-10-17T19:06:36.192Z,15.10
2017-10-17T19:09:03.012Z,15.10
2017-10-17T19:11:29.938Z,15.10
2017-10-17T19:13:57.342Z,15.10
2017-10-17T19:16:24.128Z,15.10
2017-10-17T19:18:50.469Z,15.10
2017-10-17T19:21:17.204Z,14.90
2017-10-17T19:23:44.468Z,14.90
2017-10-17T19:26:11.426Z,14.90
2017-10-17T19:28:38.598Z,14.80
2017-10-17T19:31:04.931Z,14.80
2017-10-17T19:33:31.306Z,14.80
2017-10-17T19:35:58.214Z,14.80
2017-10-17T19:38:24.558Z,14.70
2017-10-17T19:40:50.953Z,14.80
2017-10-17T19:43:17.254Z,14.80
2017-10-17T19:45:43.547Z,14.70
2017-10-17T19:48:10.439Z,14.60
2017-10-17T19:50:37.381Z,14.60
2017-10-17T19:53:03.662Z,14.60
2017-10-17T19:55:30.010Z,14.60
2017-10-17T19:57:56.383Z,14.60
2017-10-17T20:00:22.702Z,14.60
2017-10-17T20:02:48.929Z,14.60
2017-10-17T20:05:15.263Z,14.50
2017-10-17T20:07:41.586Z,14.50
2017-10-17T20:10:08.317Z,14.50
2017-10-17T20:12:35.117Z,14.40
2017-10-17T20:15:01.643Z,14.40
2017-10-17T20:17:27.941Z,14.50
2017-10-17T20:19:54.982Z,14.40
2017-10-17T20:22:21.301Z,14.40
2017-10-17T20:24:47.568Z,14.40
2017-10-17T20:27:14.501Z,14.40
2017-10-17T20:29:40.818Z,14.40
2017-10-17T20:32:07.076Z,14.40
2017-10-17T20:34:33.497Z,14.40
2017-10-17T20:36:59.826Z,14.30
2017-10-17T20:39:26.553Z,14.30
2017-10-17T20:41:52.971Z,14.30
2017-10-17T20:44:19.229Z,14.30
2017-10-17T20:46:45.598Z,14.30
2017-10-17T20:49:11.869Z,14.20
2017-10-17T20:51:38.156Z,14.20
2017-10-17T20:54:04.370Z,14.10
2017-10-17T20:56:30.705Z,14.10
2017-10-17T20:58:56.932Z,14.10
2017-10-17T21:01:23.890Z,14.10
2017-10-17T21:03:50.240Z,14.10
2017-10-17T21:06:16.457Z,14.00
2017-10-17T21:08:42.693Z,14.00
2017-10-17T21:11:09.602Z,14.00
2017-10-17T21:13:35.894Z,14.00
2017-10-17T21:16:02.192Z,14.00
2017-10-17T21:18:28.765Z,14.00
2017-10-17T21:20:55.365Z,14.00
2017-10-17T21:23:21.597Z,14.00
2017-10-17T21:25:47.934Z,14.00
2017-10-17T21:28:14.188Z,14.00
2017-10-17T21:30:40.445Z,14.00
2017-10-17T21:33:06.687Z,14.00
2017-10-17T21:35:32.910Z,13.90
2017-10-17T21:37:59.154Z,13.80
2017-10-17T21:40:25.352Z,13.80
2017-10-17T21:42:51.551Z,13.70
2017-10-17T21:45:17.804Z,13.70
2017-10-17T21:47:44.036Z,13.60
2017-10-17T21:50:10.244Z,13.60
2017-10-17T21:52:36.460Z,13.50
2017-10-17T21:55:02.953Z,13.50
2017-10-17T21:57:29.203Z,13.40
2017-10-17T21:59:55.804Z,13.30
2017-10-17T22:02:22.022Z,13.30
2017-10-17T22:04:48.229Z,13.30
2017-10-17T22:07:14.426Z,13.10
2017-10-17T22:09:40.627Z,13.00
2017-10-17T22:12:06.831Z,13.00
2017-10-17T22:14:33.059Z,13.00
2017-10-17T22:16:59.373Z,13.00
2017-10-17T22:19:25.675Z,12.90
2017-10-17T22:21:52.243Z,12.90
2017-10-17T22:24:18.505Z,12.90
2017-10-17T22:26:44.859Z,12.80
2017-10-17T22:29:11.564Z,12.80
2017-10-17T22:31:37.767Z,12.80
2017-10-17T22:34:03.968Z,12.80
2017-10-17T22:36:30.556Z,12.60
2017-10-17T22:38:56.790Z,12.60
2017-10-17T22:41:23.037Z,12.60
2017-10-17T22:43:49.250Z,12.60
2017-10-17T22:46:15.480Z,12.60
2017-10-17T22:48:41.688Z,12.60
2017-10-17T22:51:07.899Z,12.50
2017-10-17T22:53:34.121Z,12.50
2017-10-17T22:56:00.315Z,12.50
2017-10-17T22:58:26.883Z,12.50
2017-10-17T23:00:53.081Z,12.50
2017-10-17T23:03:19.308Z,12.50
2017-10-17T23:05:45.511Z,12.50
2017-10-17T23:08:11.970Z,12.50
2017-10-17T23:10:38.583Z,12.50
2017-10-17T23:13:04.804Z,12.60
2017-10-17T23:15:31.007Z,12.60
2017-10-17T23:18:09.406Z,12.60
2017-10-17T23:20:35.630Z,12.50
2017-10-17T23:23:01.819Z,12.50
2017-10-17T23:25:28.322Z,12.50
2017-10-17T23:27:54.490Z,12.50
2017-10-17T23:30:20.694Z,12.50
2017-10-17T23:32:46.900Z,12.50
2017-10-17T23:35:13.098Z,12.50
2017-10-17T23:37:39.337Z,12.50
2017-10-17T23:40:05.553Z,12.50
2017-10-17T23:42:31.773Z,12.50
2017-10-17T23:44:58.335Z,12.50
2017-10-17T23:47:24.545Z,12.50
2017-10-17T23:49:50.750Z,12.50
2017-10-17T23:52:17.392Z,12.40
2017-10-17T23:54:43.967Z,12.40
2017-10-17T23:57:10.144Z,12.40
2017-10-17T23:59:36.378Z,12.30
